Carson City, Nevada
Current Conditions -  °F | °C
As of 7:55 PM on Saturday 25 Oct 2014 (Local Time) from KCXP Reporting Station
Broken Clouds Broken Clouds  
Wind Chill: 45°   Ceiling: 5000
Heat Index: 48°   Visibility: 10mi
Dew Point: 25°   Wind: 7mph
Humidity: 40%   Direction: 210°SSW
Pressure: 30.08"   Gusts: NA
Location:  39.16°N, 119.77°W
Report Text: KCXP 260255Z AUTO 21006KT 10SM BKN050 09/M04 A3008 RMK AO2
Loading
Personal Weather Stations






























Interactive Weather Map New forecast layout! Learn more

10-Day Weather Forecast

Advertisements
Track Severe Weather on mobile